Time;durP1;ratioP1;P1;durP2;ratioP2;P2;SDS_P1;SDS_P2;PMS_P1;PMS_P2;Temp;Humidity;BMP_temperature;BMP_pressure;BME280_temperature;BME280_humidity;BME280_pressure;Samples;Min_cycle;Max_cycle;Signal;HPM_P1;HPM_P2
2022/12/09 00:00:22;;;;;;;305.70;228.20;;;;;;;;;;5035047;28;20025;-91
2022/12/09 00:02:48;;;;;;;289.23;209.77;;;;;;;;;;5035065;28;20056;-91
2022/12/09 00:05:15;;;;;;;302.17;216.55;;;;;;;;;;5035217;28;20477;-91
2022/12/09 00:07:41;;;;;;;310.05;226.50;;;;;;;;;;5034964;28;20026;-91
2022/12/09 00:10:07;;;;;;;316.02;233.18;;;;;;;;;;5034803;28;20132;-92
2022/12/09 00:12:33;;;;;;;330.80;230.73;;;;;;;;;;5034819;28;20060;-91
2022/12/09 00:15:00;;;;;;;310.95;223.93;;;;;;;;;;5034746;28;20480;-91
2022/12/09 00:17:26;;;;;;;277.45;202.45;;;;;;;;;;5034760;28;20112;-91
2022/12/09 00:19:52;;;;;;;270.33;201.73;;;;;;;;;;5034583;28;20033;-91
2022/12/09 00:22:18;;;;;;;277.25;194.98;;;;;;;;;;5034583;28;20035;-90
2022/12/09 00:24:44;;;;;;;264.88;190.23;;;;;;;;;;5034743;28;20116;-91
2022/12/09 00:27:10;;;;;;;261.10;190.30;;;;;;;;;;5034722;28;20532;-90
2022/12/09 00:29:36;;;;;;;261.88;190.30;;;;;;;;;;5034534;28;20037;-90
2022/12/09 00:32:03;;;;;;;251.55;179.43;;;;;;;;;;5034603;28;20033;-90
2022/12/09 00:34:29;;;;;;;258.73;184.18;;;;;;;;;;5034087;28;20137;-91
2022/12/09 00:36:55;;;;;;;269.25;196.13;;;;;;;;;;5034420;28;20032;-90
2022/12/09 00:39:21;;;;;;;269.70;199.23;;;;;;;;;;5034162;28;20370;-91
2022/12/09 00:41:48;;;;;;;258.05;180.45;;;;;;;;;;5034354;28;20035;-91
2022/12/09 00:44:15;;;;;;;279.10;192.70;;;;;;;;;;5034321;28;20029;-90
2022/12/09 00:46:41;;;;;;;267.35;185.05;;;;;;;;;;5034123;28;20025;-91
2022/12/09 00:49:07;;;;;;;274.58;189.32;;;;;;;;;;5034227;28;20025;-91
2022/12/09 00:51:33;;;;;;;265.95;179.27;;;;;;;;;;5034153;28;20033;-90
2022/12/09 00:53:59;;;;;;;253.70;169.88;;;;;;;;;;5034044;28;20533;-89
2022/12/09 00:56:29;;;;;;;231.32;159.30;;;;;;;;;;5034141;28;20021;-91
2022/12/09 00:58:56;;;;;;;253.00;178.57;;;;;;;;;;5034077;28;20508;-91
2022/12/09 01:01:22;;;;;;;268.35;191.20;;;;;;;;;;5033971;28;20033;-90
2022/12/09 01:03:49;;;;;;;288.50;207.57;;;;;;;;;;5035077;28;20353;-91
2022/12/09 01:06:18;;;;;;;280.40;196.57;;;;;;;;;;5034052;28;20461;-91
2022/12/09 01:08:44;;;;;;;250.80;176.25;;;;;;;;;;5034009;28;20084;-91
2022/12/09 01:11:21;;;;;;;280.20;198.02;;;;;;;;;;5033841;28;20366;-90
2022/12/09 01:13:48;;;;;;;268.20;190.48;;;;;;;;;;5032694;28;20120;-89
2022/12/09 01:16:14;;;;;;;245.15;171.07;;;;;;;;;;5034142;28;20473;-89
2022/12/09 01:18:41;;;;;;;250.35;166.80;;;;;;;;;;5033323;28;20029;-90
2022/12/09 01:21:07;;;;;;;256.00;180.40;;;;;;;;;;5033726;28;20032;-90
2022/12/09 01:23:33;;;;;;;279.42;204.35;;;;;;;;;;5034012;28;20021;-91
2022/12/09 01:25:59;;;;;;;276.13;195.68;;;;;;;;;;5033666;28;20022;-91
2022/12/09 01:28:25;;;;;;;307.92;221.13;;;;;;;;;;5033996;28;20461;-91
2022/12/09 01:30:52;;;;;;;287.42;200.57;;;;;;;;;;5033748;28;20021;-90
2022/12/09 01:33:18;;;;;;;296.45;210.80;;;;;;;;;;5056661;28;20040;-90
2022/12/09 01:35:44;;;;;;;263.77;189.65;;;;;;;;;;5042622;28;20073;-89
2022/12/09 01:38:10;;;;;;;313.67;226.82;;;;;;;;;;5035033;28;20467;-90
2022/12/09 01:40:36;;;;;;;305.98;223.18;;;;;;;;;;5033812;28;20033;-91
2022/12/09 01:43:02;;;;;;;299.77;216.15;;;;;;;;;;5033642;28;20388;-90
2022/12/09 01:45:31;;;;;;;284.65;200.70;;;;;;;;;;5033515;28;20017;-91
2022/12/09 01:47:57;;;;;;;302.58;211.43;;;;;;;;;;5033388;28;20102;-90
2022/12/09 01:50:25;;;;;;;277.75;197.38;;;;;;;;;;5033227;28;20033;-90
2022/12/09 01:52:51;;;;;;;290.92;213.63;;;;;;;;;;5033333;28;20021;-92
2022/12/09 01:55:17;;;;;;;305.67;225.57;;;;;;;;;;5033326;28;20044;-91
2022/12/09 01:57:44;;;;;;;290.15;205.77;;;;;;;;;;5033342;28;20026;-90
2022/12/09 02:00:11;;;;;;;279.40;202.18;;;;;;;;;;5033463;28;20470;-92
2022/12/09 02:02:37;;;;;;;295.80;204.27;;;;;;;;;;5033455;28;20112;-91
2022/12/09 02:05:04;;;;;;;290.05;212.35;;;;;;;;;;5033378;28;20060;-92
2022/12/09 02:07:30;;;;;;;280.90;197.57;;;;;;;;;;5033207;28;20024;-92
2022/12/09 02:09:56;;;;;;;248.75;178.93;;;;;;;;;;5033288;28;20059;-90
2022/12/09 02:12:29;;;;;;;265.95;188.25;;;;;;;;;;5035149;28;20060;-91
2022/12/09 02:14:55;;;;;;;259.17;177.93;;;;;;;;;;5036860;28;20113;-91
2022/12/09 02:17:27;;;;;;;245.70;172.93;;;;;;;;;;5036998;28;20033;-91
2022/12/09 02:20:00;;;;;;;238.57;167.52;;;;;;;;;;5037006;28;20114;-91
2022/12/09 02:22:26;;;;;;;;;;;;;;;;;;5037468;28;20030;-90
2022/12/09 02:24:52;;;;;;;221.75;151.50;;;;;;;;;;5037029;28;20443;-90
2022/12/09 02:27:22;;;;;;;212.68;143.35;;;;;;;;;;5037627;28;20100;-90
2022/12/09 02:30:03;;;;;;;247.27;170.88;;;;;;;;;;5036977;28;20021;-90
2022/12/09 02:32:58;;;;;;;222.48;156.52;;;256.10;2252.80;;;;;;5036844;28;20108;-91
2022/12/09 02:35:29;;;;;;;214.30;147.63;;;231.30;2252.80;;;;;;4949842;28;20043;-91
2022/12/09 02:38:12;;;;;;;197.23;139.27;;;231.20;2252.80;;;;;;5036906;28;20473;-92
2022/12/09 02:40:43;;;;;;;211.30;146.48;;;231.20;2252.80;;;;;;5036656;28;20029;-91
2022/12/09 02:43:11;;;;;;;195.82;136.02;;;231.00;2252.80;;;;;;5037649;28;20037;-91
2022/12/09 02:45:37;;;;;;;182.20;125.60;;;;;;;;;;5036456;28;20033;-90
2022/12/09 02:48:04;;;;;;;188.02;132.65;;;;;;;;;;5036520;28;20030;-91
2022/12/09 02:50:33;;;;;;;175.13;121.03;;;;;;;;;;5036408;28;20029;-91
2022/12/09 02:53:01;;;;;;;168.10;120.38;;;;;;;;;;5037549;28;20017;-91
2022/12/09 02:55:29;;;;;;;182.55;127.10;;;;;;;;;;5036309;28;20029;-92
2022/12/09 02:57:57;;;;;;;171.38;119.05;;;;;;;;;;5036203;28;20477;-90
2022/12/09 03:00:23;;;;;;;175.30;122.30;;;;;;;;;;5036138;28;20355;-90
2022/12/09 03:02:51;;;;;;;158.80;102.95;;;;;;;;;;5036040;28;20064;-90
2022/12/09 03:05:38;;;;;;;189.20;129.55;;;;;;;;;;5036469;28;20045;-92
2022/12/09 03:08:23;;;;;;;157.90;110.45;;;;;;;;;;5036212;28;20026;-90
2022/12/09 03:11:03;;;;;;;127.18;88.13;;;;;;;;;;5035930;28;20064;-90
2022/12/09 03:13:50;;;;;;;136.45;91.70;;;;;;;;;;5035961;28;20500;-91
2022/12/09 03:16:29;;;;;;;117.38;78.90;;;;;;;;;;5025373;28;20474;-90
2022/12/09 03:18:59;;;;;;;114.82;78.65;;;;;;;;;;5035791;28;20041;-90
2022/12/09 03:21:26;;;;;;;102.72;69.15;;;;;;;;;;5035838;28;20029;-90
2022/12/09 03:23:55;;;;;;;93.70;60.83;;;256.30;2252.80;;;;;;5035576;28;20025;-90
2022/12/09 03:26:24;;;;;;;82.05;52.22;;;256.00;2252.80;;;;;;5035770;28;20060;-90
2022/12/09 03:28:52;;;;;;;96.47;55.50;;;256.00;2252.80;;;;;;5035682;28;20479;-90
2022/12/09 03:31:23;;;;;;;83.78;59.42;;;256.00;2252.80;;;;;;5036754;28;20057;-90
2022/12/09 03:33:52;;;;;;;93.68;65.47;;;231.30;2252.80;;;;;;5035708;28;20080;-90
2022/12/09 03:36:21;;;;;;;94.10;68.75;;;256.00;2252.80;;;;;;5035730;28;20128;-90
2022/12/09 03:38:48;;;;;;;86.25;63.63;;;256.00;2252.80;;;;;;5035400;28;20439;-91
2022/12/09 03:41:29;;;;;;;85.38;60.10;;;231.30;2252.80;;;;;;5035460;28;20038;-91
2022/12/09 03:44:02;;;;;;;96.63;61.25;;;256.00;2252.80;;;;;;5035594;28;20021;-90
2022/12/09 03:46:28;;;;;;;107.55;79.53;;;231.30;2252.80;;;;;;5035262;28;20088;-90
2022/12/09 03:48:56;;;;;;;145.85;106.75;;;231.30;2252.80;;;;;;5036481;28;20355;-91
2022/12/09 03:51:30;;;;;;;147.60;105.07;;;231.20;2252.80;;;;;;5035184;28;20036;-90
2022/12/09 03:54:08;;;;;;;136.27;93.50;;;231.20;2252.80;;;;;;5035224;28;20025;-90
2022/12/09 03:56:42;;;;;;;138.75;93.47;;;231.20;2252.80;;;;;;5035224;28;20033;-90
2022/12/09 03:59:11;;;;;;;144.32;96.63;;;231.20;2252.80;;;;;;5035075;28;20030;-91
2022/12/09 04:01:39;;;;;;;132.20;90.07;;;231.30;2252.80;;;;;;5036296;28;20029;-90
2022/12/09 04:04:07;;;;;;;129.05;87.63;;;231.20;2252.80;;;;;;5035466;28;20044;-91
2022/12/09 04:06:33;;;;;;;123.35;86.20;;;231.30;2252.80;;;;;;5035262;28;20083;-91
2022/12/09 04:08:59;;;;;;;126.78;84.30;;;231.20;2252.80;;;;;;5035373;28;20025;-90
2022/12/09 04:11:25;;;;;;;116.03;80.93;;;231.20;2252.80;;;;;;5036029;28;20132;-90
2022/12/09 04:13:50;;;;;;;117.07;79.65;;;231.20;2252.80;;;;;;5035862;28;20384;-90
2022/12/09 04:16:16;;;;;;;112.53;75.50;;;231.30;2252.80;;;;;;5035280;28;20030;-90
2022/12/09 04:18:42;;;;;;;115.55;80.30;;;231.30;2252.80;;;;;;5035020;28;20121;-90
2022/12/09 04:21:10;;;;;;;126.53;87.82;;;231.20;2252.80;;;;;;5035822;28;20033;-90
2022/12/09 04:23:36;;;;;;;142.13;96.40;;;231.20;2252.80;;;;;;5035610;28;20029;-90
2022/12/09 04:26:03;;;;;;;153.95;99.30;;;231.20;2252.80;;;;;;5035663;28;20466;-89
2022/12/09 04:28:28;;;;;;;127.25;91.72;;;231.20;2252.80;;;;;;5035589;28;20049;-89
2022/12/09 04:30:54;;;;;;;134.77;89.93;;;231.20;2252.80;;;;;;5034664;28;20469;-90
2022/12/09 04:33:20;;;;;;;121.50;82.82;;;231.10;2252.80;;;;;;5037412;28;20028;-89
2022/12/09 04:35:46;;;;;;;112.65;80.28;;;231.10;2252.80;;;;;;5046259;28;20045;-90
2022/12/09 04:38:12;;;;;;;203.55;141.93;;;231.10;2252.80;;;;;;5048429;28;20021;-89
2022/12/09 04:40:38;;;;;;;122.93;84.22;;;231.00;2252.80;;;;;;5048426;28;20059;-89
2022/12/09 04:43:04;;;;;;;138.05;98.50;;;231.10;2252.80;;;;;;5048785;28;20029;-89
2022/12/09 04:45:30;;;;;;;121.25;85.47;;;231.10;2252.80;;;;;;5050031;28;20036;-89
2022/12/09 04:47:58;;;;;;;107.35;74.95;;;231.10;2252.80;;;;;;5034176;28;20477;-89
2022/12/09 04:50:24;;;;;;;96.28;66.13;;;231.10;2252.80;;;;;;5027403;28;20038;-90
2022/12/09 04:52:50;;;;;;;87.50;54.65;;;231.20;2252.80;;;;;;5015277;28;20030;-91
2022/12/09 04:55:16;;;;;;;96.53;61.35;;;231.20;2252.80;;;;;;5014045;28;20093;-90
2022/12/09 04:57:42;;;;;;;100.32;70.40;;;231.20;2252.80;;;;;;5020408;28;20140;-91
2022/12/09 05:00:09;;;;;;;108.03;74.85;;;231.30;2252.80;;;;;;5034103;28;20025;-90
2022/12/09 05:02:35;;;;;;;110.30;77.65;;;231.30;2252.80;;;;;;5033937;28;20040;-91
2022/12/09 05:05:01;;;;;;;123.82;83.45;;;231.20;2252.80;;;;;;5033898;28;20021;-91
2022/12/09 05:07:28;;;;;;;113.13;78.15;;;231.10;2252.80;;;;;;5034114;28;20025;-90
2022/12/09 05:09:53;;;;;;;135.85;88.55;;;231.20;2252.80;;;;;;5033874;28;20029;-91
2022/12/09 05:12:19;;;;;;;151.15;91.53;;;231.10;2252.80;;;;;;5033896;28;20422;-90
2022/12/09 05:14:45;;;;;;;133.07;86.82;;;231.10;2252.80;;;;;;5033756;28;20025;-91
2022/12/09 05:17:11;;;;;;;122.95;86.53;;;231.00;2252.80;;;;;;5033791;28;20366;-90
2022/12/09 05:19:37;;;;;;;159.35;97.68;;;231.00;2252.80;;;;;;5033615;28;20029;-91
2022/12/09 05:22:02;;;;;;;240.23;129.15;;;231.10;2252.80;;;;;;5033629;28;20033;-90
2022/12/09 05:24:29;;;;;;;178.73;106.65;;;231.00;2252.80;;;;;;5033624;28;20021;-90
2022/12/09 05:26:55;;;;;;;173.55;103.40;;;231.10;2252.80;;;;;;5033650;28;20052;-90
2022/12/09 05:29:21;;;;;;;162.93;98.13;;;231.10;2252.80;;;;;;5033489;28;20067;-90
2022/12/09 05:31:47;;;;;;;154.60;99.97;;;231.10;2252.80;;;;;;5033459;28;20147;-90
2022/12/09 05:34:13;;;;;;;174.75;119.75;;;231.10;2252.80;;;;;;5036726;28;20053;-90
2022/12/09 05:36:39;;;;;;;183.82;118.43;;;231.00;2252.80;;;;;;5070533;28;20083;-87
2022/12/09 05:39:04;;;;;;;222.27;146.48;;;231.10;2252.80;;;;;;5070231;28;20416;-91
2022/12/09 05:41:30;;;;;;;198.77;133.65;;;231.00;2252.80;;;;;;5070300;28;20032;-90
2022/12/09 05:43:56;;;;;;;260.75;179.50;;;231.00;2252.80;;;;;;5068847;28;20025;-90
2022/12/09 05:46:22;;;;;;;190.60;129.73;;;;;;;;;;5050642;28;20029;-89
2022/12/09 05:48:48;;;;;;;189.27;134.10;;;;;;;;;;5020960;28;20033;-90
2022/12/09 05:51:21;;;;;;;178.93;123.20;;;;;;;;;;5020944;28;20025;-90
2022/12/09 05:53:47;;;;;;;;;;;;;;;;;;5021203;28;20028;-90
2022/12/09 05:56:20;;;;;;;76.25;49.75;;;;;;;;;;5020876;28;19905;-91
2022/12/09 05:58:47;;;;;;;53.75;35.75;;;;;;;;;;5020868;28;20029;-90
2022/12/09 06:01:13;;;;;;;121.50;74.82;;;256.20;2252.80;;;;;;5020843;28;20484;-91
2022/12/09 06:03:39;;;;;;;111.68;73.75;;;231.30;2252.80;;;;;;5054123;28;20057;-90
2022/12/09 06:06:10;;;;;;;133.50;88.30;;;231.30;2252.80;;;;;;5053890;28;20072;-90
2022/12/09 06:08:37;;;;;;;193.45;133.43;;;231.30;2252.80;;;;;;5053820;28;20116;-91
2022/12/09 06:11:04;;;;;;;158.95;111.18;;;231.30;2252.80;;;;;;5053783;28;20030;-91
2022/12/09 06:13:30;;;;;;;146.75;101.53;;;231.20;2252.80;;;;;;5054943;28;20021;-90
2022/12/09 06:16:01;;;;;;;136.27;96.78;;;231.20;2252.80;;;;;;5037153;28;20032;-91
2022/12/09 06:18:27;;;;;;;137.00;93.90;;;231.20;2252.80;;;;;;5036723;28;20025;-91
2022/12/09 06:20:53;;;;;;;152.05;105.30;;;231.20;2252.80;;;;;;5036992;28;20111;-91
2022/12/09 06:23:18;;;;;;;239.88;149.77;;;231.20;2252.80;;;;;;5037111;28;20025;-89
2022/12/09 06:25:44;;;;;;;231.32;151.23;;;231.20;2252.80;;;;;;5036973;28;20480;-90
2022/12/09 06:28:11;;;;;;;293.65;196.77;;;231.10;2252.80;;;;;;5036855;28;20025;-91
2022/12/09 06:30:36;;;;;;;276.38;187.18;;;230.90;2252.80;;;;;;5036802;28;20122;-90
2022/12/09 06:33:02;;;;;;;289.90;194.10;;;231.00;2252.80;;;;;;5036714;28;20033;-90
2022/12/09 06:35:28;;;;;;;266.30;166.80;;;231.00;2252.80;;;;;;5036572;28;20050;-90
2022/12/09 06:37:54;;;;;;;246.13;165.40;;;231.10;2252.80;;;;;;5036979;28;20424;-90
2022/12/09 06:40:22;;;;;;;185.05;120.18;;;231.10;2252.80;;;;;;5036865;28;20037;-90
2022/12/09 06:42:49;;;;;;;183.85;126.00;;;231.20;2252.80;;;;;;5036728;28;20121;-90
2022/12/09 06:45:16;;;;;;;239.43;164.57;;;231.20;2252.80;;;;;;5036731;28;20056;-88
2022/12/09 06:47:42;;;;;;;157.10;109.60;;;231.20;2252.80;;;;;;5036451;28;20029;-90
2022/12/09 06:50:08;;;;;;;170.15;114.18;;;231.20;2252.80;;;;;;5036323;28;20040;-92
2022/12/09 06:52:36;;;;;;;151.20;100.45;;;231.30;2252.80;;;;;;5036573;28;20029;-91
2022/12/09 06:55:02;;;;;;;142.88;94.88;;;256.00;2252.80;;;;;;5036398;28;20036;-91
2022/12/09 06:57:28;;;;;;;162.43;104.78;;;256.20;2252.80;;;;;;5035659;28;20030;-90
2022/12/09 06:59:54;;;;;;;196.68;126.50;;;256.10;2252.80;;;;;;5036266;28;20025;-91
2022/12/09 07:02:20;;;;;;;174.48;116.55;;;231.30;2252.80;;;;;;5035914;28;20121;-91
2022/12/09 07:04:46;;;;;;;182.70;113.85;;;231.30;2252.80;;;;;;5036262;28;20168;-90
2022/12/09 07:07:13;;;;;;;129.30;78.82;;;231.30;2252.80;;;;;;5036158;28;20052;-91
2022/12/09 07:09:39;;;;;;;96.38;57.67;;;256.10;2252.80;;;;;;5019615;28;20462;-90
2022/12/09 07:12:05;;;;;;;101.65;59.38;;;256.20;2252.80;;;;;;5036039;28;20025;-90
2022/12/09 07:14:31;;;;;;;106.25;60.50;;;256.40;2252.80;;;;;;5035924;28;20022;-90
2022/12/09 07:16:57;;;;;;;116.50;65.43;;;256.40;2252.80;;;;;;5035875;28;20109;-90
2022/12/09 07:19:23;;;;;;;238.43;120.35;;;256.50;2252.80;;;;;;5035777;28;20034;-90
2022/12/09 07:21:50;;;;;;;260.02;133.02;;;256.50;2252.80;;;;;;5035437;28;20458;-91
2022/12/09 07:24:17;;;;;;;257.70;133.93;;;256.50;2252.80;;;;;;5035721;28;20124;-91
2022/12/09 07:26:43;;;;;;;198.02;113.88;;;256.70;2252.80;;;;;;5035754;28;20495;-90
2022/12/09 07:29:09;;;;;;;238.32;127.68;;;256.70;2252.80;;;;;;5035577;28;20124;-91
2022/12/09 07:31:35;;;;;;;168.50;98.07;;;256.70;2252.80;;;;;;5035639;28;20068;-90
2022/12/09 07:34:02;;;;;;;129.85;75.90;;;256.80;2252.80;;;;;;5035446;28;20143;-89
2022/12/09 07:36:29;;;;;;;158.90;87.55;;;256.90;2252.80;;;;;;5035366;28;20030;-90
2022/12/09 07:39:01;;;;;;;111.53;67.80;;;281.70;2278.40;;;;;;5035571;28;20461;-91
2022/12/09 07:41:27;;;;;;;166.50;98.57;;;256.90;2252.80;;;;;;5035561;28;20087;-90
2022/12/09 07:43:53;;;;;;;229.68;125.13;;;256.90;2252.80;;;;;;5035332;28;20036;-90
2022/12/09 07:46:21;;;;;;;161.00;90.68;;;256.90;2252.80;;;;;;5035274;28;20029;-89
2022/12/09 07:48:47;;;;;;;161.07;95.57;;;281.60;2278.40;;;;;;5035430;28;20469;-91
2022/12/09 07:51:14;;;;;;;156.35;90.97;;;281.70;2278.40;;;;;;5035314;28;20026;-90
2022/12/09 07:53:39;;;;;;;154.40;91.28;;;281.70;2278.40;;;;;;5035260;28;20032;-90
2022/12/09 07:56:10;;;;;;;127.18;76.53;;;281.80;2278.40;;;;;;5018721;28;20025;-90
2022/12/09 07:58:37;;;;;;;90.03;53.85;;;281.90;2278.40;;;;;;5036567;28;20026;-90
2022/12/09 08:01:27;;;;;;;116.05;62.92;;;281.90;2278.40;;;;;;5056043;28;20032;-91
2022/12/09 08:03:54;;;;;;;106.28;61.03;;;282.00;2278.40;;;;;;5038447;28;20437;-89
2022/12/09 08:06:22;;;;;;;98.03;53.55;;;282.00;2278.40;;;;;;5038287;28;20043;-90
2022/12/09 08:08:49;;;;;;;98.72;55.28;;;282.10;2278.40;;;;;;5037802;28;20056;-89
2022/12/09 08:11:18;;;;;;;137.60;73.43;;;282.10;2278.40;;;;;;5037853;28;20025;-90
2022/12/09 08:13:44;;;;;;;162.88;86.18;;;282.10;2278.40;;;;;;5038203;28;20025;-90
2022/12/09 08:16:13;;;;;;;167.95;96.43;;;282.20;2278.40;;;;;;5038227;28;20416;-88
2022/12/09 08:18:40;;;;;;;163.48;94.18;;;282.20;2278.40;;;;;;5037703;28;20025;-90
2022/12/09 08:21:09;;;;;;;134.27;78.40;;;282.20;2278.40;;;;;;5038245;28;20028;-89
2022/12/09 08:23:36;;;;;;;164.50;104.18;;;282.30;2278.40;;;;;;5038098;28;20551;-89
2022/12/09 08:26:03;;;;;;;153.73;98.60;;;282.40;2278.40;;;;;;5055304;28;20053;-89
2022/12/09 08:28:29;;;;;;;135.07;82.72;;;282.40;2278.40;;;;;;5038195;28;20362;-89
2022/12/09 08:30:55;;;;;;;132.98;78.80;;;282.40;2278.40;;;;;;5037859;28;20167;-92
2022/12/09 08:33:21;;;;;;;125.07;74.10;;;282.50;2278.40;;;;;;5037485;28;20021;-89
2022/12/09 08:35:47;;;;;;;163.55;106.00;;;282.50;2278.40;;;;;;5036621;28;20056;-88
2022/12/09 08:38:12;;;;;;;158.73;106.03;;;307.20;2304.00;;;;;;5037467;28;20025;-86
2022/12/09 08:40:39;;;;;;;203.95;126.05;;;307.20;2304.00;;;;;;5037535;28;20034;-90
2022/12/09 08:43:07;;;;;;;74.82;38.17;;;307.30;2304.00;;;;;;5037475;28;20038;-90
2022/12/09 08:45:38;;;;;;;97.25;55.35;;;307.30;2304.00;;;;;;5032658;28;20057;-93
2022/12/09 08:48:04;;;;;;;84.38;48.08;;;307.40;2304.00;;;;;;5034235;28;20087;-90
2022/12/09 08:50:30;;;;;;;66.07;34.92;;;307.40;2304.00;;;;;;5034223;28;20029;-88
2022/12/09 08:52:56;;;;;;;75.20;32.55;;;307.50;2304.00;;;;;;5035150;28;20083;-89
2022/12/09 08:55:22;;;;;;;57.30;28.58;;;307.60;2304.00;;;;;;5034529;28;20021;-90
2022/12/09 08:57:48;;;;;;;48.75;25.40;;;;;;;;;;5017406;28;20060;-85
2022/12/09 09:00:14;;;;;;;44.42;17.35;;;307.90;2304.00;;;;;;5049313;28;20029;-86
2022/12/09 09:02:40;;;;;;;44.28;20.15;;;308.00;2304.00;;;;;;5016662;28;20057;-85
2022/12/09 09:05:06;;;;;;;42.33;17.60;;;307.90;2304.00;;;;;;5016806;28;20072;-86
2022/12/09 09:07:32;;;;;;;49.90;18.45;;;332.80;2329.60;;;;;;5029585;28;20056;-85
2022/12/09 09:09:59;;;;;;;58.05;26.65;;;332.80;2329.60;;;;;;5041522;28;20077;-85
2022/12/09 09:12:26;;;;;;;48.35;20.27;;;332.80;2329.60;;;;;;5041524;28;20033;-85
2022/12/09 09:14:53;;;;;;;47.35;20.48;;;308.10;2304.00;;;;;;5040139;28;20014;-85
2022/12/09 09:17:20;;;;;;;39.17;20.95;;;308.10;2304.00;;;;;;5054682;28;20029;-85
2022/12/09 09:19:46;;;;;;;53.40;22.92;;;;;;;;;;5049167;28;20033;-85
2022/12/09 09:22:12;;;;;;;49.15;25.85;;;;;;;;;;5016333;28;20473;-86
2022/12/09 09:24:38;;;;;;;52.38;28.17;;;332.90;2329.60;;;;;;5016838;28;20025;-86
2022/12/09 09:27:04;;;;;;;72.03;38.63;;;332.80;2329.60;;;;;;5049775;28;20029;-86
2022/12/09 09:29:30;;;;;;;69.95;36.97;;;332.90;2329.60;;;;;;5034193;28;20078;-86
2022/12/09 09:31:56;;;;;;;57.15;32.08;;;;;;;;;;5049344;28;20049;-86
2022/12/09 09:34:24;;;;;;;128.25;62.78;;;;;;;;;;5016642;28;20057;-85
2022/12/09 09:36:50;;;;;;;86.72;42.45;;;;;;;;;;5016502;28;20021;-85
2022/12/09 09:39:17;;;;;;;71.70;38.08;;;332.90;2329.60;;;;;;5016647;28;20025;-88
2022/12/09 09:42:03;;;;;;;99.38;55.78;;;308.10;2304.00;;;;;;5017048;28;20464;-87
2022/12/09 09:44:59;;;;;;;65.45;34.33;;;308.10;2304.00;;;;;;5050037;28;20575;-87
2022/12/09 09:47:55;;;;;;;71.88;42.40;;;308.10;2304.00;;;;;;5018321;28;20034;-87
2022/12/09 09:50:42;;;;;;;84.65;52.42;;;308.10;2304.00;;;;;;5050081;28;20120;-88
2022/12/09 09:53:34;;;;;;;74.57;46.65;;;332.80;2329.60;;;;;;5049870;28;20021;-87
2022/12/09 09:56:25;;;;;;;65.88;40.67;;;332.90;2329.60;;;;;;5012602;28;20033;-83
2022/12/09 09:59:26;;;;;;;61.92;37.60;;;333.00;2329.60;;;;;;5034219;28;20021;-86
2022/12/09 10:02:12;;;;;;;62.08;38.22;;;332.90;2329.60;;;;;;4993611;28;20548;-87
2022/12/09 10:05:03;;;;;;;53.08;29.05;;;332.90;2329.60;;;;;;5005531;28;20034;-86
2022/12/09 10:07:32;;;;;;;45.33;21.50;;;332.90;2329.60;;;;;;5049695;28;20458;-86
2022/12/09 10:10:13;;;;;;;36.83;21.00;;;333.00;2329.60;;;;;;5016471;28;20427;-86
2022/12/09 10:13:11;;;;;;;37.00;23.52;;;333.20;2329.60;;;;;;5016457;28;20029;-85
2022/12/09 10:15:52;;;;;;;35.65;18.55;;;333.10;2329.60;;;;;;4996813;28;20048;-88
2022/12/09 10:18:34;;;;;;;45.70;24.65;;;333.20;2329.60;;;;;;5050105;28;20124;-89
2022/12/09 10:21:00;;;;;;;39.65;20.63;;;333.20;2329.60;;;;;;5049853;28;20473;-88
2022/12/09 10:23:32;;;;;;;40.60;17.88;;;333.30;2329.60;;;;;;5049794;28;20033;-89
2022/12/09 10:26:03;;;;;;;41.22;21.70;;;333.40;2329.60;;;;;;5049839;28;20129;-88
2022/12/09 10:28:45;;;;;;;35.78;17.83;;;333.40;2329.60;;;;;;5049986;28;20029;-86
2022/12/09 10:31:11;;;;;;;29.35;17.40;;;333.50;2329.60;;;;;;5049961;28;20033;-85
2022/12/09 10:33:38;;;;;;;27.67;13.55;;;333.50;2329.60;;;;;;5036220;28;20025;-86
2022/12/09 10:36:06;;;;;;;32.97;16.40;;;333.60;2329.60;;;;;;5053041;28;20482;-85
2022/12/09 10:38:36;;;;;;;27.60;16.33;;;333.60;2329.60;;;;;;5053093;28;20369;-86
2022/12/09 10:43:33;;;;;;;28.08;13.13;;;333.50;2329.60;;;;;;5037947;28;20044;-88
2022/12/09 10:44:18;;;;;;;30.60;14.30;;;333.70;2329.60;;;;;;5037574;28;20026;-89
2022/12/09 10:46:44;;;;;;;;;;;333.70;2329.60;;;;;;5053714;28;20033;-89
2022/12/09 10:49:19;;;;;;;45.63;21.55;;;333.70;2329.60;;;;;;5019983;28;20332;-89
2022/12/09 10:51:50;;;;;;;39.47;16.60;;;333.60;2329.60;;;;;;5053109;28;20026;-87
2022/12/09 10:54:33;;;;;;;41.45;21.38;;;333.60;2329.60;;;;;;5053032;28;20034;-88
2022/12/09 10:57:10;;;;;;;49.88;23.95;;;333.60;2329.60;;;;;;5020143;28;20099;-87
2022/12/09 10:59:38;;;;;;;36.30;22.77;;;333.60;2329.60;;;;;;5019707;28;20037;-87
2022/12/09 11:02:06;;;;;;;42.17;19.27;;;333.60;2329.60;;;;;;5019790;28;20638;-88
2022/12/09 11:04:34;;;;;;;37.58;18.85;;;333.60;2329.60;;;;;;5019698;28;20383;-89
2022/12/09 11:07:13;;;;;;;39.83;21.55;;;333.70;2329.60;;;;;;5019565;28;20507;-87
2022/12/09 11:09:41;;;;;;;37.17;17.15;;;;;;;;;;5019531;28;20033;-86
2022/12/09 11:12:28;;;;;;;35.03;20.85;;;358.50;2329.60;;;;;;5019350;28;20386;-88
2022/12/09 11:15:03;;;;;;;44.63;21.25;;;358.50;2329.60;;;;;;5019232;28;20030;-88
2022/12/09 11:17:34;;;;;;;48.28;20.80;;;358.50;2329.60;;;;;;5019411;28;20029;-88
2022/12/09 11:20:20;;;;;;;26.63;16.83;;;358.50;2329.60;;;;;;5019734;28;20473;-87
2022/12/09 11:22:59;;;;;;;43.88;24.58;;;358.40;2329.60;;;;;;5019373;28;20029;-87
2022/12/09 11:25:28;;;;;;;39.45;21.60;;;358.40;2329.60;;;;;;5036679;28;20022;-85
2022/12/09 11:28:13;;;;;;;37.42;18.75;;;333.70;2329.60;;;;;;5018169;28;20029;-81
2022/12/09 11:30:55;;;;;;;32.45;17.20;;;333.70;2329.60;;;;;;5036113;28;20108;-82
2022/12/09 11:33:24;;;;;;;32.95;18.90;;;333.70;2329.60;;;;;;5018301;28;20462;-83
2022/12/09 11:36:16;;;;;;;31.40;19.38;;;333.70;2329.60;;;;;;5022385;28;20098;-81
2022/12/09 11:38:44;;;;;;;31.90;19.67;;;358.40;2329.60;;;;;;5030237;28;20040;-82
2022/12/09 11:44:23;;;;;;;36.40;21.40;;;333.70;2329.60;;;;;;5055547;28;20028;-85
2022/12/09 11:46:57;;;;;;;32.00;19.33;;;333.70;2329.60;;;;;;5038603;28;20479;-85
2022/12/09 11:49:24;;;;;;;31.08;19.42;;;333.70;2329.60;;;;;;5037667;28;20423;-85
2022/12/09 11:52:05;;;;;;;50.42;29.67;;;333.70;2329.60;;;;;;5038275;28;20060;-85
2022/12/09 11:54:47;;;;;;;40.13;20.58;;;333.70;2329.60;;;;;;5038394;28;20033;-84
2022/12/09 11:57:34;;;;;;;34.97;21.95;;;333.70;2329.60;;;;;;5037940;28;20032;-86
2022/12/09 12:00:05;;;;;;;37.00;19.80;;;333.70;2329.60;;;;;;5038104;28;20067;-86
2022/12/09 12:02:45;;;;;;;34.33;19.05;;;333.70;2329.60;;;;;;5037341;28;20032;-87
2022/12/09 12:05:43;;;;;;;32.38;19.05;;;333.70;2329.60;;;;;;5034942;28;20024;-85
2022/12/09 12:08:29;;;;;;;30.83;15.88;;;333.70;2329.60;;;;;;5028102;28;20032;-85
2022/12/09 12:11:26;;;;;;;31.80;18.70;;;333.70;2329.60;;;;;;5056285;28;20037;-85
2022/12/09 12:14:02;;;;;;;29.27;16.98;;;333.60;2329.60;;;;;;5028924;28;20114;-84
2022/12/09 12:17:03;;;;;;;21.90;12.77;;;333.60;2329.60;;;;;;5032856;28;20464;-85
2022/12/09 12:19:36;;;;;;;25.35;15.98;;;333.60;2329.60;;;;;;5035676;28;20120;-84
2022/12/09 12:22:23;;;;;;;32.85;16.65;;;333.70;2329.60;;;;;;5029174;28;20122;-85
2022/12/09 12:25:00;;;;;;;23.48;16.15;;;333.60;2329.60;;;;;;5033654;28;20017;-85
2022/12/09 12:27:51;;;;;;;19.33;13.18;;;333.60;2329.60;;;;;;5027404;28;20481;-84
2022/12/09 12:30:24;;;;;;;28.42;17.52;;;333.70;2329.60;;;;;;5053332;28;20044;-83
2022/12/09 12:33:44;;;;;;;30.73;20.40;;;333.70;2329.60;;;;;;5037388;28;20029;-85
2022/12/09 12:36:16;;;;;;;36.20;17.55;;;333.60;2329.60;;;;;;4938616;29;20499;-84
2022/12/09 12:39:06;;;;;;;30.73;19.48;;;333.60;2329.60;;;;;;5032946;28;20465;-84
2022/12/09 12:41:36;;;;;;;52.53;26.42;;;333.50;2329.60;;;;;;5035471;28;20080;-84
2022/12/09 12:47:23;;;;;;;38.42;20.73;;;333.50;2329.60;;;;;;5034787;28;20393;-84